createdAt,value
2018-02-03T12:17:26.601Z,4.62
2018-02-03T12:18:26.554Z,4.56
2018-02-03T12:19:26.311Z,4.62
2018-02-03T12:20:26.316Z,4.62
2018-02-03T12:21:26.509Z,4.56
2018-02-03T12:22:26.301Z,4.56
2018-02-03T12:23:26.587Z,4.62
2018-02-03T12:24:26.392Z,4.62
2018-02-03T12:25:26.551Z,4.69
2018-02-03T12:26:26.556Z,4.62
2018-02-03T12:27:26.678Z,4.69
2018-02-03T12:28:26.584Z,4.69
2018-02-03T12:29:26.757Z,4.69
2018-02-03T12:30:26.573Z,4.69
2018-02-03T12:31:26.339Z,4.69
2018-02-03T12:32:26.561Z,4.75
2018-02-03T12:33:26.712Z,4.69
2018-02-03T12:34:27.898Z,4.75
2018-02-03T12:35:26.685Z,4.69
2018-02-03T12:36:26.315Z,4.75
2018-02-03T12:37:26.322Z,4.69
2018-02-03T12:38:26.605Z,4.75
2018-02-03T12:39:26.382Z,4.69
2018-02-03T12:40:26.412Z,4.75
2018-02-03T12:41:26.431Z,4.69
2018-02-03T12:42:26.492Z,4.75
2018-02-03T12:43:26.317Z,4.75
2018-02-03T12:44:26.487Z,4.69
2018-02-03T12:45:26.323Z,4.69
2018-02-03T12:46:26.434Z,4.75
2018-02-03T12:47:26.440Z,4.75
2018-02-03T12:48:26.464Z,4.75
2018-02-03T12:49:26.410Z,4.75
2018-02-03T12:50:26.403Z,4.69
2018-02-03T12:51:26.410Z,4.69
2018-02-03T12:52:26.462Z,4.69
2018-02-03T12:53:26.488Z,4.69
2018-02-03T12:54:26.369Z,4.69
2018-02-03T12:55:26.510Z,4.69
2018-02-03T12:56:26.487Z,4.75
2018-02-03T12:57:26.392Z,4.69
2018-02-03T12:58:26.500Z,4.75
2018-02-03T12:59:26.434Z,4.69
2018-02-03T13:00:26.369Z,4.75
2018-02-03T13:01:26.366Z,4.75
2018-02-03T13:02:26.316Z,4.75
2018-02-03T13:03:26.447Z,4.81
2018-02-03T13:04:26.351Z,4.75
2018-02-03T13:05:26.455Z,4.81
2018-02-03T13:06:26.411Z,4.81
2018-02-03T13:07:26.344Z,4.81
2018-02-03T13:08:26.301Z,4.75
2018-02-03T13:09:26.226Z,4.81
2018-02-03T13:10:26.254Z,4.81
2018-02-03T13:11:26.422Z,4.81
2018-02-03T13:12:26.226Z,4.75
2018-02-03T13:13:26.435Z,4.81
2018-02-03T13:14:26.508Z,4.75
2018-02-03T13:15:26.443Z,4.75
2018-02-03T13:16:29.188Z,4.81
2018-02-03T13:17:27.981Z,4.75
2018-02-03T13:18:26.315Z,4.81
2018-02-03T13:19:26.183Z,4.75
2018-02-03T13:20:26.108Z,4.81
2018-02-03T13:21:26.259Z,4.87
2018-02-03T13:22:26.306Z,4.87
2018-02-03T13:23:26.467Z,4.94
2018-02-03T13:24:26.331Z,5
2018-02-03T13:25:26.337Z,4.94
2018-02-03T13:26:26.517Z,4.94
2018-02-03T13:27:26.426Z,5
2018-02-03T13:28:26.644Z,4.94
2018-02-03T13:29:26.442Z,5
2018-02-03T13:30:26.323Z,4.94
2018-02-03T13:31:26.103Z,4.94
2018-02-03T13:32:26.336Z,4.94
2018-02-03T13:33:26.873Z,5
2018-02-03T13:34:26.707Z,5
2018-02-03T13:35:26.156Z,4.94
2018-02-03T13:36:26.478Z,4.94
2018-02-03T13:37:28.230Z,4.87
2018-02-03T13:38:26.264Z,4.94
2018-02-03T13:39:26.251Z,4.94
2018-02-03T13:40:26.213Z,4.94
2018-02-03T13:41:26.167Z,4.94
2018-02-03T13:42:26.253Z,4.94
2018-02-03T13:43:26.267Z,4.94
2018-02-03T13:44:26.319Z,4.94
2018-02-03T13:45:26.378Z,4.94
2018-02-03T13:46:26.144Z,4.94
2018-02-03T13:47:26.133Z,4.94
2018-02-03T13:48:26.386Z,4.87
2018-02-03T13:49:26.514Z,4.94
2018-02-03T13:50:26.400Z,4.94
2018-02-03T13:51:26.491Z,4.94
2018-02-03T13:52:26.289Z,4.87
2018-02-03T13:53:28.032Z,4.87
2018-02-03T13:54:26.513Z,4.87
2018-02-03T13:55:26.255Z,4.87
2018-02-03T13:56:26.527Z,4.87
2018-02-03T13:57:26.304Z,4.81
2018-02-03T13:58:26.531Z,4.87
2018-02-03T13:59:26.322Z,4.81
2018-02-03T14:00:26.415Z,4.81
2018-02-03T14:01:26.297Z,4.81
2018-02-03T14:02:26.432Z,4.81
2018-02-03T14:03:26.563Z,4.81
2018-02-03T14:04:26.300Z,4.87
2018-02-03T14:05:26.309Z,4.81
2018-02-03T14:06:26.637Z,4.81
2018-02-03T14:07:26.427Z,4.81
2018-02-03T14:08:26.435Z,4.81
2018-02-03T14:09:26.249Z,4.81
2018-02-03T14:10:26.455Z,4.81
2018-02-03T14:11:26.314Z,4.87
2018-02-03T14:12:26.319Z,4.81
2018-02-03T14:13:26.325Z,4.87
2018-02-03T14:14:26.381Z,4.81
2018-02-03T14:15:26.343Z,4.87
2018-02-03T14:16:26.374Z,4.81
2018-02-03T14:17:26.365Z,4.81
2018-02-03T14:18:26.477Z,4.87
2018-02-03T14:19:26.361Z,4.81
2018-02-03T14:20:26.556Z,4.81
2018-02-03T14:21:26.512Z,4.81
2018-02-03T14:22:26.556Z,4.81
2018-02-03T14:23:26.477Z,4.81
2018-02-03T14:24:26.405Z,4.81
2018-02-03T14:25:26.410Z,4.75
2018-02-03T14:26:26.606Z,4.81
2018-02-03T14:27:26.448Z,4.81
2018-02-03T14:28:26.539Z,4.81
2018-02-03T14:29:26.503Z,4.75
2018-02-03T14:30:26.665Z,4.75
2018-02-03T14:31:26.441Z,4.81
2018-02-03T14:32:26.417Z,4.75
2018-02-03T14:33:29.211Z,4.75
2018-02-03T14:34:26.386Z,4.75
2018-02-03T14:35:26.691Z,4.75
2018-02-03T14:36:26.660Z,4.75
2018-02-03T14:37:26.402Z,4.75
2018-02-03T14:38:26.551Z,4.75
2018-02-03T14:39:26.621Z,4.69
2018-02-03T14:40:26.390Z,4.69
2018-02-03T14:41:26.419Z,4.69
2018-02-03T14:42:27.206Z,4.69
2018-02-03T14:43:26.699Z,4.69
2018-02-03T14:44:30.765Z,4.69
2018-02-03T14:45:26.632Z,4.69
2018-02-03T14:46:26.464Z,4.69
2018-02-03T14:47:26.346Z,4.69
2018-02-03T14:48:26.558Z,4.69
2018-02-03T14:49:26.647Z,4.69
2018-02-03T14:50:26.459Z,4.69
2018-02-03T14:51:26.448Z,4.62
2018-02-03T14:52:26.585Z,4.62
2018-02-03T14:53:26.653Z,4.62
2018-02-03T14:54:26.447Z,4.56
2018-02-03T14:55:26.548Z,4.56
2018-02-03T14:56:26.646Z,4.5
2018-02-03T14:57:26.407Z,4.5
2018-02-03T14:58:26.504Z,4.5
2018-02-03T14:59:26.453Z,4.44
2018-02-03T15:00:26.986Z,4.25
2018-02-03T15:01:26.430Z,4.06
2018-02-03T15:02:26.472Z,3.94
2018-02-03T15:03:26.552Z,3.87
2018-02-03T15:04:26.556Z,3.69
2018-02-03T15:05:26.390Z,3.62
2018-02-03T15:06:26.600Z,3.44
2018-02-03T15:07:26.744Z,3.37
2018-02-03T15:08:26.416Z,3.31
2018-02-03T15:09:26.613Z,3.19
2018-02-03T15:10:26.560Z,3.12
2018-02-03T15:11:26.721Z,3
2018-02-03T15:12:26.405Z,2.87
2018-02-03T15:13:26.435Z,2.87
2018-02-03T15:14:26.422Z,2.81
2018-02-03T15:15:26.756Z,2.81
2018-02-03T15:16:26.648Z,2.87
2018-02-03T15:17:26.459Z,2.87
2018-02-03T15:18:26.628Z,2.87
2018-02-03T15:19:25.655Z,2.94
2018-02-03T15:20:25.867Z,3
2018-02-03T15:21:25.689Z,2.94
2018-02-03T15:22:25.815Z,2.94
2018-02-03T15:23:25.981Z,2.94
2018-02-03T15:24:25.795Z,2.94
2018-02-03T15:25:25.761Z,3
2018-02-03T15:26:25.866Z,3
2018-02-03T15:27:25.756Z,3.06
2018-02-03T15:28:25.867Z,3.06
2018-02-03T15:29:25.642Z,3.06
2018-02-03T15:30:25.766Z,3.12
2018-02-03T15:31:25.613Z,3.12
2018-02-03T15:32:26.096Z,3.19
2018-02-03T15:33:25.868Z,3.25
2018-02-03T15:34:25.757Z,3.31
2018-02-03T15:35:25.960Z,3.25
2018-02-03T15:36:25.915Z,3.31
2018-02-03T15:37:25.756Z,3.31
2018-02-03T15:38:25.626Z,3.31
2018-02-03T15:39:25.804Z,3.37
2018-02-03T15:40:25.866Z,3.31
2018-02-03T15:41:25.966Z,3.37
2018-02-03T15:42:25.747Z,3.44
2018-02-03T15:43:25.887Z,3.44
2018-02-03T15:44:25.820Z,3.44
2018-02-03T15:45:26.052Z,3.44
2018-02-03T15:46:25.810Z,3.44
2018-02-03T15:47:25.941Z,3.44
2018-02-03T15:48:25.857Z,3.37
2018-02-03T15:49:25.931Z,3.44
2018-02-03T15:50:26.016Z,3.44
2018-02-03T15:51:26.177Z,3.44
2018-02-03T15:52:26.049Z,3.44
2018-02-03T15:53:26.073Z,3.44
2018-02-03T15:54:26.161Z,3.44
2018-02-03T15:55:25.959Z,3.44
2018-02-03T15:56:25.955Z,3.44
2018-02-03T15:57:26.099Z,3.37
2018-02-03T15:58:26.140Z,3.44
2018-02-03T15:59:26.146Z,3.37
2018-02-03T16:00:26.119Z,3.37
2018-02-03T16:01:26.058Z,3.37
2018-02-03T16:02:26.058Z,3.37
2018-02-03T16:03:26.015Z,3.31
2018-02-03T16:04:25.941Z,3.37
2018-02-03T16:05:25.984Z,3.31
2018-02-03T16:06:26.034Z,3.31
2018-02-03T16:07:26.382Z,3.37
2018-02-03T16:10:47.266Z,3.31
2018-02-03T16:11:26.260Z,3.37
2018-02-03T16:12:25.950Z,3.37
2018-02-03T16:13:26.090Z,3.37
2018-02-03T16:14:25.897Z,3.31
2018-02-03T16:16:25.860Z,3.31
2018-02-03T16:17:25.916Z,3.31
2018-02-03T16:18:26.146Z,3.25
2018-02-03T16:19:26.008Z,3.31
2018-02-03T16:20:26.197Z,3.31
2018-02-03T16:21:26.183Z,3.31
2018-02-03T16:22:26.019Z,3.31
2018-02-03T16:23:26.275Z,3.37
2018-02-03T16:24:26.085Z,3.37
2018-02-03T16:25:26.050Z,3.31
2018-02-03T16:26:26.010Z,3.31
2018-02-03T16:27:26.138Z,3.31
2018-02-03T16:28:26.229Z,3.37
2018-02-03T16:29:26.146Z,3.31
2018-02-03T16:30:25.944Z,3.31
2018-02-03T16:31:26.028Z,3.31
2018-02-03T16:32:26.191Z,3.25
2018-02-03T16:33:26.311Z,3.31
2018-02-03T16:34:26.356Z,3.31
2018-02-03T16:35:26.086Z,3.31
2018-02-03T16:36:26.110Z,3.31
2018-02-03T16:37:26.399Z,3.31
2018-02-03T16:38:26.152Z,3.31
2018-02-03T16:39:26.214Z,3.31
2018-02-03T16:40:26.195Z,3.31
2018-02-03T16:41:26.382Z,3.37
2018-02-03T16:42:26.194Z,3.31
2018-02-03T16:43:26.382Z,3.31
2018-02-03T16:44:26.193Z,3.31
2018-02-03T16:45:26.324Z,3.37
2018-02-03T16:46:26.236Z,3.37
2018-02-03T16:47:26.244Z,3.37
2018-02-03T16:48:26.182Z,3.44
2018-02-03T16:49:26.070Z,3.44
2018-02-03T16:50:26.213Z,3.5
2018-02-03T16:51:26.193Z,3.44
2018-02-03T16:52:26.346Z,3.44
2018-02-03T16:53:26.287Z,3.5
2018-02-03T16:54:26.773Z,3.5
2018-02-03T16:55:26.529Z,3.5
2018-02-03T16:56:26.318Z,3.56
2018-02-03T16:57:26.323Z,3.56
2018-02-03T16:58:26.186Z,3.56
2018-02-03T16:59:26.186Z,3.56
2018-02-03T17:00:26.254Z,3.56
2018-02-03T17:01:26.140Z,3.56
2018-02-03T17:02:26.323Z,3.56
2018-02-03T17:03:26.415Z,3.56
2018-02-03T17:04:26.256Z,3.56
2018-02-03T17:05:26.162Z,3.56
2018-02-03T17:06:26.323Z,3.5
2018-02-03T17:07:26.496Z,3.5
2018-02-03T17:08:26.264Z,3.44
2018-02-03T17:09:26.263Z,3.44
2018-02-03T17:10:26.300Z,3.37
2018-02-03T17:11:26.217Z,3.44
2018-02-03T17:12:26.089Z,3.44
2018-02-03T17:13:26.117Z,3.44
2018-02-03T17:14:26.236Z,3.37
2018-02-03T17:15:26.291Z,3.31
2018-02-03T17:16:26.054Z,3.31
2018-02-03T17:17:26.245Z,3.31
2018-02-03T17:18:26.075Z,3.31
2018-02-03T17:19:26.180Z,3.25
2018-02-03T17:20:26.301Z,3.31
2018-02-03T17:21:26.546Z,3.25
2018-02-03T17:22:26.320Z,3.31
2018-02-03T17:23:26.458Z,3.31
2018-02-03T17:24:26.473Z,3.31
2018-02-03T17:25:27.151Z,3.31
2018-02-03T17:26:26.366Z,3.31
2018-02-03T17:27:26.780Z,3.37
2018-02-03T17:28:27.141Z,3.31
2018-02-03T17:29:26.609Z,3.31
2018-02-03T17:30:26.459Z,3.31
2018-02-03T17:31:26.341Z,3.37
2018-02-03T17:32:26.677Z,3.31
2018-02-03T17:33:26.688Z,3.31
2018-02-03T17:34:27.248Z,3.31
2018-02-03T17:35:26.528Z,3.31
2018-02-03T17:36:26.353Z,3.37
2018-02-03T17:37:26.804Z,3.37
2018-02-03T17:38:26.569Z,3.37
2018-02-03T17:39:26.617Z,3.44
2018-02-03T17:40:26.490Z,3.44
2018-02-03T17:41:26.481Z,3.44
2018-02-03T17:42:26.691Z,3.5
2018-02-03T17:43:26.364Z,3.5
2018-02-03T17:44:26.618Z,3.56
2018-02-03T17:45:27.111Z,3.56
2018-02-03T17:46:26.653Z,3.56
2018-02-03T17:47:26.573Z,3.56
2018-02-03T17:48:26.730Z,3.62
2018-02-03T17:49:26.360Z,3.62
2018-02-03T17:50:27.221Z,3.56
2018-02-03T17:51:26.461Z,3.56
2018-02-03T17:52:26.621Z,3.56
2018-02-03T17:53:26.314Z,3.56
2018-02-03T17:54:26.410Z,3.56
2018-02-03T17:55:26.541Z,3.5
2018-02-03T17:56:26.547Z,3.5
2018-02-03T17:57:26.391Z,3.5
2018-02-03T17:58:26.494Z,3.44
2018-02-03T17:59:26.373Z,3.44
2018-02-03T18:00:26.289Z,3.44
2018-02-03T18:01:26.400Z,3.44
2018-02-03T18:02:26.580Z,3.37
2018-02-03T18:03:26.589Z,3.31
2018-02-03T18:04:27.105Z,3.37
2018-02-03T18:05:26.383Z,3.31
2018-02-03T18:06:26.400Z,3.31
2018-02-03T18:07:26.407Z,3.31
2018-02-03T18:08:26.600Z,3.31
2018-02-03T18:09:26.400Z,3.37
2018-02-03T18:10:26.232Z,3.37
2018-02-03T18:11:26.439Z,3.31
2018-02-03T18:12:26.638Z,3.37
2018-02-03T18:13:26.404Z,3.37
2018-02-03T18:14:26.333Z,3.37
2018-02-03T18:15:26.365Z,3.44
2018-02-03T18:16:26.466Z,3.37
2018-02-03T18:17:26.279Z,3.37
2018-02-03T18:18:26.566Z,3.37
2018-02-03T18:19:26.371Z,3.37
2018-02-03T18:20:26.402Z,3.37
2018-02-03T18:21:26.294Z,3.31
2018-02-03T18:22:26.467Z,3.31
2018-02-03T18:23:26.626Z,3.31
2018-02-03T18:24:26.519Z,3.25
2018-02-03T18:25:27.011Z,3.25
2018-02-03T18:26:26.615Z,3.25
2018-02-03T18:27:26.398Z,3.25
2018-02-03T18:28:26.570Z,3.25
2018-02-03T18:29:26.823Z,3.25
2018-02-03T18:30:26.610Z,3.25
2018-02-03T18:31:27.132Z,3.19
2018-02-03T18:32:26.550Z,3.19
2018-02-03T18:33:26.544Z,3.19
2018-02-03T18:34:26.627Z,3.19
2018-02-03T18:35:26.461Z,3.12
2018-02-03T18:36:26.658Z,3.19
2018-02-03T18:37:26.393Z,3.12
2018-02-03T18:38:26.462Z,3.19
2018-02-03T18:39:26.672Z,3.12
2018-02-03T18:40:26.641Z,3.12
2018-02-03T18:41:26.610Z,3.12
2018-02-03T18:42:26.644Z,3.12
2018-02-03T18:43:26.540Z,3.12
2018-02-03T18:44:26.634Z,3.06
2018-02-03T18:45:26.572Z,3.06
2018-02-03T18:46:26.526Z,3.06
2018-02-03T18:47:26.410Z,3.06
2018-02-03T18:48:30.912Z,3.06
2018-02-03T18:49:27.817Z,3.06
2018-02-03T18:50:26.508Z,3.06
2018-02-03T18:51:31.736Z,3.12
2018-02-03T18:52:25.679Z,3.06
2018-02-03T18:53:25.722Z,3.06
2018-02-03T18:54:25.559Z,3.12
2018-02-03T18:55:25.682Z,3.12
2018-02-03T18:56:25.654Z,3.06
2018-02-03T18:57:25.785Z,3.06
2018-02-03T18:58:25.810Z,3.06
2018-02-03T18:59:25.863Z,3
2018-02-03T19:00:25.708Z,3.06
2018-02-03T19:01:25.841Z,3.06
2018-02-03T19:02:25.726Z,3.12
2018-02-03T19:03:25.696Z,3.06
2018-02-03T19:04:25.785Z,3.06
2018-02-03T19:05:25.780Z,3.06
2018-02-03T19:06:25.847Z,3.12
2018-02-03T19:07:25.686Z,3.06
2018-02-03T19:08:25.965Z,3.12
2018-02-03T19:09:25.592Z,3.12
2018-02-03T19:10:25.817Z,3.12
2018-02-03T19:11:25.618Z,3.12
2018-02-03T19:12:25.725Z,3.12
2018-02-03T19:13:25.799Z,3.12
2018-02-03T19:14:25.779Z,3.12
2018-02-03T19:15:25.871Z,3.12
2018-02-03T19:16:26.279Z,3.12
2018-02-03T19:17:25.829Z,3.12
2018-02-03T19:18:25.663Z,3.12
2018-02-03T19:19:25.678Z,3.12
2018-02-03T19:20:25.781Z,3.12
2018-02-03T19:21:25.866Z,3.12
2018-02-03T19:22:26.061Z,3.12
2018-02-03T19:23:26.287Z,3.12
2018-02-03T19:24:26.166Z,3.12
2018-02-03T19:25:26.417Z,3.12
2018-02-03T19:26:26.242Z,3.12
2018-02-03T19:27:26.227Z,3.12
2018-02-03T19:28:26.438Z,3.12
2018-02-03T19:29:26.201Z,3.06
2018-02-03T19:30:26.179Z,3.12
2018-02-03T19:31:26.137Z,3.12
2018-02-03T19:32:26.150Z,3.12
2018-02-03T19:33:26.227Z,3.12
2018-02-03T19:34:26.275Z,3.12
2018-02-03T19:35:26.234Z,3.12
2018-02-03T19:36:26.244Z,3.12
2018-02-03T19:37:26.179Z,3.06
2018-02-03T19:38:26.497Z,3.06
2018-02-03T19:39:26.234Z,3.06
2018-02-03T19:40:26.183Z,3.06
2018-02-03T19:41:26.865Z,3.12
2018-02-03T19:42:26.727Z,3.06
2018-02-03T19:43:26.271Z,3.06
2018-02-03T19:44:26.269Z,3.12
2018-02-03T19:45:26.208Z,3.06
2018-02-03T19:46:26.114Z,3.06
2018-02-03T19:47:26.248Z,3.06
2018-02-03T19:48:26.304Z,3.06
2018-02-03T19:49:26.151Z,3.06
2018-02-03T19:50:26.310Z,3.06
2018-02-03T19:51:26.451Z,3.06
2018-02-03T19:52:26.196Z,3
2018-02-03T19:53:26.251Z,3.06
2018-02-03T19:54:26.117Z,3.06
2018-02-03T19:55:26.432Z,3.06
2018-02-03T19:56:26.298Z,3
2018-02-03T19:57:26.228Z,3.06
2018-02-03T19:58:26.235Z,3.06
2018-02-03T19:59:26.187Z,3.06
2018-02-03T20:00:26.096Z,3.06
2018-02-03T20:01:26.128Z,3.06
2018-02-03T20:02:26.282Z,3.12
2018-02-03T20:03:26.138Z,3.12
2018-02-03T20:04:26.353Z,3.12
2018-02-03T20:05:26.317Z,3.12
2018-02-03T20:06:26.380Z,3.06
2018-02-03T20:07:26.469Z,3.06
2018-02-03T20:08:26.576Z,3.06
2018-02-03T20:09:26.204Z,3.12
2018-02-03T20:10:26.200Z,3.06
2018-02-03T20:11:26.277Z,3.06
2018-02-03T20:12:26.521Z,3.06
2018-02-03T20:13:26.295Z,3.06
2018-02-03T20:14:26.471Z,3.06
2018-02-03T20:15:26.430Z,3.06
2018-02-03T20:16:26.300Z,3
2018-02-03T20:17:26.263Z,3.06
2018-02-03T20:18:26.287Z,3
2018-02-03T20:19:26.285Z,3
2018-02-03T20:20:26.142Z,3
2018-02-03T20:21:26.431Z,3
2018-02-03T20:22:26.183Z,3
2018-02-03T20:23:27.207Z,3
2018-02-03T20:24:27.134Z,3
2018-02-03T20:25:26.246Z,3
2018-02-03T20:26:26.349Z,3
2018-02-03T20:27:26.274Z,3
2018-02-03T20:28:26.123Z,3
2018-02-03T20:29:26.504Z,3
2018-02-03T20:30:26.393Z,3
2018-02-03T20:31:26.388Z,3
2018-02-03T20:32:26.420Z,3
2018-02-03T20:33:26.360Z,3
2018-02-03T20:34:26.464Z,3
2018-02-03T20:35:26.238Z,3
2018-02-03T20:36:26.328Z,3.06
2018-02-03T20:37:26.387Z,3.06
2018-02-03T20:38:26.288Z,3.06
2018-02-03T20:39:26.187Z,3.06
2018-02-03T20:40:26.410Z,3.06
2018-02-03T20:41:26.147Z,3.06
2018-02-03T20:42:26.251Z,3.12
2018-02-03T20:43:26.389Z,3.12
2018-02-03T20:44:26.161Z,3.12
2018-02-03T20:45:26.016Z,3.12
2018-02-03T20:46:26.162Z,3.12
2018-02-03T20:47:26.364Z,3.12
2018-02-03T20:48:26.188Z,3.12
2018-02-03T20:49:26.244Z,3.12
2018-02-03T20:50:26.249Z,3.19
2018-02-03T20:51:26.259Z,3.12
2018-02-03T20:52:26.306Z,3.19
2018-02-03T20:53:26.171Z,3.19
2018-02-03T20:54:26.231Z,3.19
2018-02-03T20:55:26.144Z,3.19
2018-02-03T20:56:26.236Z,3.19
2018-02-03T20:57:26.264Z,3.19
2018-02-03T20:58:26.233Z,3.19
2018-02-03T20:59:26.210Z,3.25
2018-02-03T21:00:26.375Z,3.19
2018-02-03T21:01:26.254Z,3.25
2018-02-03T21:02:26.198Z,3.19
2018-02-03T21:03:26.293Z,3.25
2018-02-03T21:04:26.389Z,3.19
2018-02-03T21:05:26.361Z,3.25
2018-02-03T21:06:26.257Z,3.19
2018-02-03T21:07:26.244Z,3.25
2018-02-03T21:08:26.091Z,3.25
2018-02-03T21:09:26.281Z,3.25
2018-02-03T21:10:26.261Z,3.19
2018-02-03T21:11:26.153Z,3.25
2018-02-03T21:12:26.206Z,3.31
2018-02-03T21:13:27.035Z,3.31
2018-02-03T21:14:26.459Z,3.31
2018-02-03T21:15:26.169Z,3.31
2018-02-03T21:16:26.499Z,3.37
2018-02-03T21:17:26.327Z,3.37
2018-02-03T21:18:26.385Z,3.37
2018-02-03T21:19:26.350Z,3.37
2018-02-03T21:20:26.343Z,3.37
2018-02-03T21:21:26.157Z,3.31
2018-02-03T21:22:26.412Z,3.31
2018-02-03T21:23:26.317Z,3.31
2018-02-03T21:24:26.249Z,3.31
2018-02-03T21:25:26.105Z,3.25
2018-02-03T21:26:26.027Z,3.31
2018-02-03T21:27:26.213Z,3.31
2018-02-03T21:28:25.969Z,3.25
2018-02-03T21:29:26.007Z,3.31
2018-02-03T21:30:26.071Z,3.25
2018-02-03T21:31:26.226Z,3.25
2018-02-03T21:32:25.906Z,3.25
2018-02-03T21:33:26.192Z,3.25
2018-02-03T21:34:26.085Z,3.25
2018-02-03T21:35:27.166Z,3.25
2018-02-03T21:36:26.168Z,3.25
2018-02-03T21:37:25.994Z,3.25
2018-02-03T21:38:25.979Z,3.25
2018-02-03T21:39:26.196Z,3.25
2018-02-03T21:40:26.086Z,3.31
2018-02-03T21:41:26.130Z,3.31
2018-02-03T21:42:26.140Z,3.31
2018-02-03T21:43:26.003Z,3.31
2018-02-03T21:44:26.206Z,3.37
2018-02-03T21:45:26.188Z,3.31
2018-02-03T21:46:26.280Z,3.31
2018-02-03T21:47:26.249Z,3.31
2018-02-03T21:48:26.194Z,3.37
2018-02-03T21:49:25.983Z,3.37
2018-02-03T21:50:27.032Z,3.37
2018-02-03T21:51:27.149Z,3.37
2018-02-03T21:52:26.232Z,3.37
2018-02-03T21:53:26.370Z,3.37
2018-02-03T21:54:26.039Z,3.37
2018-02-03T21:55:28.024Z,3.37
2018-02-03T21:56:26.889Z,3.31
2018-02-03T21:57:25.854Z,3.37
2018-02-03T21:58:25.604Z,3.31
2018-02-03T21:59:25.833Z,3.37
2018-02-03T22:00:25.893Z,3.31
2018-02-03T22:01:25.822Z,3.31
2018-02-03T22:02:25.841Z,3.31
2018-02-03T22:03:25.877Z,3.31
2018-02-03T22:04:25.771Z,3.37
2018-02-03T22:05:25.653Z,3.31
2018-02-03T22:06:25.810Z,3.31
2018-02-03T22:07:25.878Z,3.31
2018-02-03T22:08:25.640Z,3.31
2018-02-03T22:09:25.730Z,3.37
2018-02-03T22:10:26.560Z,3.37
2018-02-03T22:11:25.845Z,3.31
2018-02-03T22:12:29.761Z,3.31
2018-02-03T22:13:28.382Z,3.31
2018-02-03T22:14:25.779Z,3.37
2018-02-03T22:15:25.871Z,3.31
2018-02-03T22:16:25.689Z,3.31
2018-02-03T22:17:25.852Z,3.31
2018-02-03T22:18:25.724Z,3.37
2018-02-03T22:19:25.754Z,3.37
2018-02-03T22:20:25.596Z,3.31
2018-02-03T22:21:25.956Z,3.37
2018-02-03T22:22:25.812Z,3.37
2018-02-03T22:23:25.947Z,3.37
2018-02-03T22:24:26.632Z,3.31
2018-02-03T22:25:26.979Z,3.31
2018-02-03T22:26:26.140Z,3.37
2018-02-03T22:27:27.289Z,3.37
2018-02-03T22:28:26.340Z,3.31
2018-02-03T22:29:26.492Z,3.31
2018-02-03T22:30:26.104Z,3.25
2018-02-03T22:31:26.406Z,3.25
2018-02-03T22:32:26.218Z,3.31
2018-02-03T22:33:26.096Z,3.25
2018-02-03T22:34:26.127Z,3.25
2018-02-03T22:35:26.236Z,3.25
2018-02-03T22:36:34.717Z,3.25
2018-02-03T22:37:28.298Z,3.19
2018-02-03T22:38:28.072Z,3.19
2018-02-03T22:39:29.158Z,3.19
2018-02-03T22:40:30.742Z,3.19
2018-02-03T22:41:27.622Z,3.25
2018-02-03T22:42:31.441Z,3.19
2018-02-03T22:43:26.294Z,3.19
2018-02-03T22:44:26.180Z,3.12
2018-02-03T22:45:27.448Z,3.12
2018-02-03T22:46:26.308Z,3.12
2018-02-03T22:47:27.000Z,3.12
2018-02-03T22:48:27.247Z,3.12
2018-02-03T22:49:26.790Z,3.12
2018-02-03T22:50:26.323Z,3.12
2018-02-03T22:51:26.232Z,3.12
2018-02-03T22:52:27.048Z,3.12
2018-02-03T22:53:27.107Z,3.12
2018-02-03T22:54:26.437Z,3.19
2018-02-03T22:55:26.955Z,3.19
2018-02-03T22:56:30.850Z,3.19
2018-02-03T22:57:25.959Z,3.19
2018-02-03T22:58:25.865Z,3.19
2018-02-03T22:59:27.115Z,3.25
2018-02-03T23:00:26.036Z,3.19
2018-02-03T23:01:26.634Z,3.19
2018-02-03T23:02:26.270Z,3.19
2018-02-03T23:03:25.969Z,3.19
2018-02-03T23:04:26.016Z,3.19
2018-02-03T23:05:26.831Z,3.19
2018-02-03T23:06:26.235Z,3.25
2018-02-03T23:07:25.995Z,3.19
2018-02-03T23:08:26.082Z,3.19
2018-02-03T23:09:25.824Z,3.19
2018-02-03T23:10:25.802Z,3.19
2018-02-03T23:11:25.884Z,3.19
2018-02-03T23:12:25.893Z,3.19
2018-02-03T23:13:25.936Z,3.19
2018-02-03T23:14:26.327Z,3.12
2018-02-03T23:15:25.924Z,3.12
2018-02-03T23:16:25.901Z,3.12
2018-02-03T23:17:25.835Z,3.19
2018-02-03T23:18:26.008Z,3.12
2018-02-03T23:19:25.926Z,3.19
2018-02-03T23:20:25.913Z,3.12
2018-02-03T23:21:26.041Z,3.12
2018-02-03T23:22:25.929Z,3.19
2018-02-03T23:23:25.980Z,3.12
2018-02-03T23:24:25.780Z,3.19
2018-02-03T23:25:25.918Z,3.12
2018-02-03T23:26:25.873Z,3.19
2018-02-03T23:27:26.017Z,3.12
2018-02-03T23:28:26.131Z,3.12
2018-02-03T23:29:26.317Z,3.06
2018-02-03T23:30:26.051Z,3.12
2018-02-03T23:31:26.165Z,3.06
2018-02-03T23:32:26.031Z,3.06
2018-02-03T23:33:26.010Z,3.06
2018-02-03T23:34:26.019Z,3.06
2018-02-03T23:35:26.131Z,3.06
2018-02-03T23:36:26.019Z,3
2018-02-03T23:37:26.189Z,3.06
2018-02-03T23:38:26.111Z,3
2018-02-03T23:39:26.204Z,3.06
2018-02-03T23:40:26.122Z,3
2018-02-03T23:41:26.460Z,3
2018-02-03T23:42:26.061Z,3
2018-02-03T23:43:26.107Z,3
2018-02-03T23:44:26.177Z,3
2018-02-03T23:45:26.041Z,3
2018-02-03T23:46:26.024Z,2.94
2018-02-03T23:47:26.136Z,3
2018-02-03T23:48:26.270Z,3
2018-02-03T23:49:26.002Z,2.94
2018-02-03T23:50:26.207Z,2.94
2018-02-03T23:51:26.061Z,2.94
2018-02-03T23:52:26.049Z,2.94
2018-02-03T23:53:26.156Z,2.87
2018-02-03T23:54:26.098Z,2.94
2018-02-03T23:55:26.036Z,2.94
2018-02-03T23:56:26.094Z,2.94
2018-02-03T23:57:26.025Z,2.94
2018-02-03T23:58:25.965Z,2.94
2018-02-03T23:59:25.902Z,2.94
